Ames, Iowa
Current Conditions -  °F | °C
As of 12:53 PM on Thursday 30 Oct 2014 (Local Time) from KAMW Reporting Station
Clear Clear  
Wind Chill: 13°   Ceiling: Unl
Heat Index: 13°   Visibility: 10mi
Dew Point:   Wind: 5mph
Humidity: 51%   Direction: 350°N
Pressure: 30.02"   Gusts: NA
Location:  42.03°N, 93.62°W
Report Text: KAMW 301753Z AUTO 35004KT 10SM CLR 13/03 A3002 RMK AO2 SLP169 60000 T01330033 10133 20039 56005
Loading
Personal Weather Stations






























Interactive Weather Map
Tropical Storm Tracking
New forecast layout! Learn more

10-Day Weather Forecast

Advertisements
Track Severe Weather on mobile